| Date | Time | Temp. (oF) | Dew Point (oF) | Rel. Hum. (%) | Press. (in.) | Wind Dir. | Wind Speed (mph) | Hourly Rainfall (in.) |
|
|---|---|---|---|---|---|---|---|---|---|
| 1 | 02/06 | 00:00 | 38 | 28 | 68 | 29.97 | NW | 3 | 0.00 |
| 2 | 02/05 | 23:00 | 37 | 27 | 68 | 29.95 | NW | 0 | 0.00 |
| 3 | 02/05 | 22:00 | 38 | 27 | 65 | 29.94 | NW | 0 | 0.00 |
| 4 | 02/05 | 21:00 | 38 | 26 | 62 | 29.91 | NW | 2 | 0.00 |
| 5 | 02/05 | 20:00 | 40 | 25 | 57 | 29.91 | NW | 1 | 0.00 |
| 6 | 02/05 | 19:00 | 41 | 24 | 51 | 29.91 | NW | 3 | 0.00 |
| 7 | 02/05 | 18:00 | 43 | 23 | 45 | 29.90 | NW | 5 | 0.00 |
| 8 | 02/05 | 17:00 | 44 | 22 | 42 | 29.87 | NW | 4 | 0.00 |
| 9 | 02/05 | 16:00 | 45 | 23 | 42 | 29.85 | NW | 7 | 0.00 |
| 10 | 02/05 | 15:00 | 44 | 21 | 41 | 29.84 | NW | 4 | 0.00 |
| 11 | 02/05 | 14:00 | 41 | 17 | 39 | 29.85 | NW | 6 | 0.00 |
| 12 | 02/05 | 13:00 | 38 | 16 | 41 | 29.89 | NW | 6 | 0.00 |
| 13 | 02/05 | 12:00 | 36 | 15 | 42 | 29.93 | NW | 5 | 0.00 |
| 14 | 02/05 | 11:00 | 35 | 14 | 43 | 29.95 | NW | 5 | 0.00 |
| 15 | 02/05 | 10:00 | 33 | 13 | 45 | 29.98 | NW | 4 | 0.00 |
| 16 | 02/05 | 09:00 | 32 | 12 | 45 | 30.01 | NW | 7 | 0.00 |
| 17 | 02/05 | 08:00 | 31 | 13 | 47 | 30.03 | NW | 5 | 0.00 |
| 18 | 02/05 | 07:00 | 31 | 13 | 47 | 30.04 | NW | 7 | 0.00 |
| 19 | 02/05 | 06:00 | 30 | 12 | 47 | 30.06 | NW | 5 | 0.00 |
| 20 | 02/05 | 05:00 | 30 | 11 | 46 | 30.08 | NW | 8 | 0.00 |
| 21 | 02/05 | 04:00 | 29 | 11 | 47 | 30.10 | NW | 5 | 0.00 |
| 22 | 02/05 | 03:00 | 29 | 10 | 46 | 30.14 | NW | 0 | 0.00 |
| 23 | 02/05 | 02:00 | 30 | 9 | 42 | 30.17 | NW | 5 | 0.00 |
| 24 | 02/05 | 01:00 | 30 | 9 | 41 | 30.19 | NW | 6 | 0.00 |